createdAt,value
2018-02-01T00:03:32.739Z,22.50
2018-02-01T00:08:35.274Z,22.50
2018-02-01T00:13:37.901Z,22.60
2018-02-01T00:18:40.412Z,22.60
2018-02-01T00:23:43.736Z,22.60
2018-02-01T00:28:46.275Z,22.60
2018-02-01T00:33:48.846Z,22.50
2018-02-01T00:38:52.387Z,22.40
2018-02-01T00:43:55.554Z,22.40
2018-02-01T00:48:58.124Z,22.40
2018-02-01T00:54:01.271Z,22.40
2018-02-01T00:59:04.549Z,22.40
2018-02-01T01:04:07.347Z,22.40
2018-02-01T01:09:09.883Z,22.40
2018-02-01T01:14:13.262Z,22.40
2018-02-01T01:19:16.498Z,22.40
2018-02-01T01:24:20.731Z,22.40
2018-02-01T01:29:24.098Z,22.40
2018-02-01T01:34:27.000Z,22.40
2018-02-01T01:39:29.907Z,22.40
2018-02-01T01:44:32.463Z,22.40
2018-02-01T01:49:35.761Z,22.30
2018-02-01T01:54:38.295Z,22.30
2018-02-01T01:59:40.827Z,22.30
2018-02-01T02:04:43.346Z,22.30
2018-02-01T02:09:45.907Z,22.30
2018-02-01T02:14:48.532Z,22.30
2018-02-01T02:19:51.942Z,22.30
2018-02-01T02:24:56.008Z,22.30
2018-02-01T02:29:58.526Z,22.30
2018-02-01T02:35:01.203Z,22.30
2018-02-01T02:40:03.926Z,22.30
2018-02-01T02:45:06.433Z,22.30
2018-02-01T02:50:09.044Z,22.30
2018-02-01T02:55:11.958Z,22.30
2018-02-01T03:00:15.156Z,22.30
2018-02-01T03:05:17.699Z,22.30
2018-02-01T03:10:20.214Z,22.30
2018-02-01T03:15:23.306Z,22.30
2018-02-01T03:20:26.052Z,22.30
2018-02-01T03:25:28.653Z,22.30
2018-02-01T03:30:32.154Z,22.30
2018-02-01T03:35:34.692Z,22.30
2018-02-01T03:40:37.343Z,22.30
2018-02-01T03:45:40.672Z,22.30
2018-02-01T03:50:43.202Z,22.30
2018-02-01T03:55:45.759Z,22.30
2018-02-01T04:00:49.031Z,22.30
2018-02-01T04:05:51.607Z,22.30
2018-02-01T04:10:54.135Z,22.30
2018-02-01T04:15:56.650Z,22.30
2018-02-01T04:21:00.537Z,22.40
2018-02-01T04:26:03.291Z,22.30
2018-02-01T04:31:06.503Z,22.40
2018-02-01T04:36:09.053Z,22.40
2018-02-01T04:41:11.567Z,22.40
2018-02-01T04:46:14.201Z,22.40
2018-02-01T04:51:16.747Z,22.40
2018-02-01T04:56:20.112Z,22.40
2018-02-01T05:01:22.670Z,22.40
2018-02-01T05:06:25.432Z,22.40
2018-02-01T05:11:28.029Z,22.40
2018-02-01T05:16:30.603Z,22.40
2018-02-01T05:21:33.121Z,22.40
2018-02-01T05:26:35.859Z,22.40
2018-02-01T05:31:39.244Z,22.40
2018-02-01T05:36:41.789Z,22.40
2018-02-01T05:41:44.359Z,22.40
2018-02-01T05:46:46.946Z,22.40
2018-02-01T05:51:49.594Z,22.40
2018-02-01T05:56:52.143Z,22.40
2018-02-01T06:01:55.422Z,22.40
2018-02-01T06:06:58.257Z,22.30
2018-02-01T06:12:01.564Z,22.30
2018-02-01T06:17:04.854Z,22.40
2018-02-01T06:22:07.881Z,22.30
2018-02-01T06:27:11.264Z,22.30
2018-02-01T06:32:13.806Z,22.30
2018-02-01T06:37:16.348Z,22.30
2018-02-01T06:42:18.856Z,22.30
2018-02-01T06:47:21.350Z,22.40
2018-02-01T06:52:24.631Z,22.40
2018-02-01T06:57:27.189Z,22.40
2018-02-01T07:02:30.475Z,22.40
2018-02-01T07:07:33.010Z,22.40
2018-02-01T07:12:35.742Z,22.40
2018-02-01T07:17:38.369Z,22.40
2018-02-01T07:22:40.912Z,22.40
2018-02-01T07:27:43.424Z,22.40
2018-02-01T07:32:45.939Z,22.40
2018-02-01T07:37:49.308Z,22.40
2018-02-01T07:42:52.269Z,22.40
2018-02-01T07:47:55.686Z,22.40
2018-02-01T07:52:59.003Z,22.40
2018-02-01T07:58:02.277Z,22.40
2018-02-01T08:03:04.910Z,22.40
2018-02-01T08:08:08.808Z,22.40
2018-02-01T08:13:11.430Z,22.40
2018-02-01T08:18:14.019Z,22.40
2018-02-01T08:23:17.292Z,22.50
2018-02-01T08:28:19.854Z,22.50
2018-02-01T08:33:22.440Z,22.50
2018-02-01T08:38:25.091Z,22.50
2018-02-01T08:43:27.711Z,22.50
2018-02-01T08:48:31.328Z,22.50
2018-02-01T08:53:34.086Z,22.50
2018-02-01T08:58:37.153Z,22.60
2018-02-01T09:03:39.721Z,22.60
2018-02-01T09:08:43.115Z,22.60
2018-02-01T09:13:45.629Z,22.60
2018-02-01T09:18:48.264Z,22.60
2018-02-01T09:23:50.768Z,22.60
2018-02-01T09:28:53.880Z,22.70
2018-02-01T09:33:56.632Z,22.70
2018-02-01T09:38:59.473Z,22.70
2018-02-01T09:44:02.213Z,22.70
2018-02-01T09:49:04.732Z,22.80
2018-02-01T09:54:07.264Z,22.90
2018-02-01T09:59:11.208Z,22.80
2018-02-01T10:04:13.679Z,22.80
2018-02-01T10:09:16.174Z,22.80
2018-02-01T10:14:18.804Z,22.80
2018-02-01T10:19:21.293Z,22.80
2018-02-01T10:24:24.019Z,22.80
2018-02-01T10:29:29.597Z,22.70
2018-02-01T10:34:32.161Z,22.70
2018-02-01T10:39:37.997Z,22.70
2018-02-01T10:44:41.428Z,22.70
2018-02-01T10:49:44.056Z,22.70
2018-02-01T10:54:47.310Z,22.60
2018-02-01T10:59:49.831Z,22.60
2018-02-01T11:04:52.423Z,22.60
2018-02-01T11:09:54.948Z,22.60
2018-02-01T11:14:57.446Z,22.50
2018-02-01T11:19:59.972Z,22.50
2018-02-01T11:25:02.569Z,22.50
2018-02-01T11:30:06.186Z,22.40
2018-02-01T11:35:09.156Z,22.40
2018-02-01T11:40:12.018Z,22.40
2018-02-01T11:45:15.369Z,22.40
2018-02-01T11:50:18.873Z,22.40
2018-02-01T11:55:22.157Z,22.40
2018-02-01T12:00:24.752Z,22.30
2018-02-01T12:05:27.284Z,22.30
2018-02-01T12:10:29.802Z,22.30
2018-02-01T12:15:32.986Z,22.30
2018-02-01T12:20:36.253Z,22.30
2018-02-01T12:25:38.868Z,22.20
2018-02-01T12:30:42.185Z,22.20
2018-02-01T12:35:45.215Z,22.20
2018-02-01T12:40:48.818Z,22.10
2018-02-01T12:50:59.494Z,22.10
2018-02-01T12:56:02.948Z,22.10
2018-02-01T13:01:05.449Z,22.10
2018-02-01T13:06:07.954Z,22.10
2018-02-01T13:11:10.472Z,22.00
2018-02-01T13:16:12.987Z,22.10
2018-02-01T13:21:15.614Z,22.00
2018-02-01T13:26:18.923Z,22.00
2018-02-01T13:31:22.116Z,22.00
2018-02-01T13:36:24.634Z,22.00
2018-02-01T13:41:27.312Z,22.00
2018-02-01T13:46:30.326Z,22.00
2018-02-01T13:51:32.922Z,22.00
2018-02-01T13:56:35.476Z,22.00
2018-02-01T14:01:38.059Z,22.10
2018-02-01T14:06:40.679Z,22.10
2018-02-01T14:11:44.458Z,22.20
2018-02-01T14:16:47.051Z,22.10
2018-02-01T14:21:50.642Z,22.10
2018-02-01T14:26:53.168Z,22.10
2018-02-01T14:31:56.752Z,22.00
2018-02-01T14:36:59.305Z,22.00
2018-02-01T14:42:01.863Z,22.00
2018-02-01T14:47:04.830Z,22.10
2018-02-01T14:52:07.895Z,22.00
2018-02-01T14:57:10.532Z,22.00
2018-02-01T15:02:13.186Z,22.00
2018-02-01T15:07:16.596Z,21.90
2018-02-01T15:12:19.232Z,22.00
2018-02-01T15:17:21.976Z,22.00
2018-02-01T15:22:24.739Z,22.00
2018-02-01T15:27:27.367Z,21.90
2018-02-01T15:32:30.290Z,21.90
2018-02-01T15:37:33.783Z,21.90
2018-02-01T15:42:37.316Z,21.90
2018-02-01T15:47:39.916Z,21.90
2018-02-01T15:52:43.432Z,21.90
2018-02-01T15:57:46.131Z,21.90
2018-02-01T16:02:49.612Z,21.90
2018-02-01T16:07:52.675Z,21.90
2018-02-01T16:12:55.234Z,21.90
2018-02-01T16:17:58.013Z,21.90
2018-02-01T16:23:00.563Z,21.90
2018-02-01T16:28:03.644Z,21.90
2018-02-01T16:33:07.877Z,21.80
2018-02-01T16:38:11.541Z,21.80
2018-02-01T16:43:14.121Z,21.80
2018-02-01T16:48:16.731Z,21.80
2018-02-01T16:53:19.282Z,21.80
2018-02-01T16:58:21.955Z,21.80
2018-02-01T17:03:25.074Z,21.80
2018-02-01T17:08:28.388Z,21.80
2018-02-01T17:13:30.940Z,21.70
2018-02-01T17:18:33.991Z,21.60
2018-02-01T17:23:37.785Z,21.50
2018-02-01T17:28:40.448Z,21.50
2018-02-01T17:33:43.011Z,21.40
2018-02-01T17:38:46.072Z,21.40
2018-02-01T17:43:48.816Z,21.40
2018-02-01T17:48:51.514Z,21.40
2018-02-01T17:53:55.735Z,21.60
2018-02-01T17:59:03.282Z,21.60
2018-02-01T18:04:06.440Z,21.60
2018-02-01T18:09:09.071Z,21.60
2018-02-01T18:14:11.619Z,21.60
2018-02-01T18:19:14.362Z,21.70
2018-02-01T18:24:16.979Z,21.70
2018-02-01T18:29:19.511Z,21.60
2018-02-01T18:34:22.487Z,21.60
2018-02-01T18:39:25.320Z,21.60
2018-02-01T18:44:28.711Z,21.50
2018-02-01T18:49:31.511Z,21.60
2018-02-01T18:54:34.557Z,21.60
2018-02-01T18:59:37.500Z,21.40
2018-02-01T19:04:40.468Z,21.40
2018-02-01T19:09:44.072Z,21.30
2018-02-01T19:14:46.903Z,21.30
2018-02-01T19:19:49.620Z,21.30
2018-02-01T19:24:53.013Z,21.30
2018-02-01T19:29:56.423Z,21.30
2018-02-01T19:34:58.964Z,21.30
2018-02-01T19:40:01.531Z,21.30
2018-02-01T19:45:04.294Z,21.30
2018-02-01T19:50:07.196Z,21.30
2018-02-01T19:55:09.829Z,21.30
2018-02-01T20:00:12.496Z,21.30
2018-02-01T20:05:16.121Z,21.30
2018-02-01T20:10:18.695Z,21.20
2018-02-01T20:15:21.462Z,21.30
2018-02-01T20:20:24.308Z,21.20
2018-02-01T20:25:26.847Z,21.30
2018-02-01T20:30:29.373Z,21.30
2018-02-01T20:35:31.939Z,21.30
2018-02-01T20:40:34.492Z,21.30
2018-02-01T20:45:37.221Z,21.30
2018-02-01T20:50:39.788Z,21.30
2018-02-01T20:55:42.704Z,21.30
2018-02-01T21:00:45.264Z,21.30
2018-02-01T21:05:48.598Z,21.30
2018-02-01T21:10:51.279Z,21.30
2018-02-01T21:15:53.852Z,21.20
2018-02-01T21:20:56.381Z,21.20
2018-02-01T21:25:59.259Z,21.20
2018-02-01T21:31:01.788Z,21.20
2018-02-01T21:36:04.317Z,21.20
2018-02-01T21:41:06.927Z,21.10
2018-02-01T21:46:09.646Z,21.20
2018-02-01T21:51:13.906Z,21.20
2018-02-01T21:56:16.498Z,21.20
2018-02-01T22:01:19.438Z,21.20
2018-02-01T22:06:22.316Z,21.20
2018-02-01T22:11:24.898Z,21.20
2018-02-01T22:16:27.501Z,21.20
2018-02-01T22:21:30.081Z,21.30
2018-02-01T22:26:32.658Z,21.10
2018-02-01T22:31:36.271Z,21.10
2018-02-01T22:36:40.561Z,21.10
2018-02-01T22:41:43.131Z,21.10
2018-02-01T22:46:45.728Z,21.10
2018-02-01T22:51:48.304Z,21.10
2018-02-01T22:56:50.899Z,21.10
2018-02-01T23:01:53.459Z,21.10
2018-02-01T23:06:57.002Z,21.20
2018-02-01T23:11:59.591Z,21.20
2018-02-01T23:17:02.122Z,21.10
2018-02-01T23:22:04.850Z,21.00
2018-02-01T23:27:07.482Z,20.90
2018-02-01T23:32:10.180Z,20.90
2018-02-01T23:37:13.564Z,20.90
2018-02-01T23:42:16.099Z,20.80
2018-02-01T23:47:18.651Z,20.90
2018-02-01T23:52:21.177Z,20.80
2018-02-01T23:57:23.744Z,20.80
